Terminal Aerodrome Forecast
Issued by NWS

Home | Current Version | Previous Version | Text Only | Print | Product List | Glossary On
Versions: 1 2 3 4 5 6 7 8 9 10 11 12 13 14 15 16 17 18 19 20 21 22 23 24 25 26 27 28 29 30 31 32 33 34 35 36 37 38 39 40 41 42 43 44 45 46 47 48 49
000
FTUS45 KSLC 260057 AAA
TAFBCE
TAF AMD
KBCE 260057Z 2601/2624 27010KT P6SM VCTS SCT060CB BKN090
      TEMPO 2601/2602 VRB10G20KT -TSRA BKN060CB
     FM260200 27007KT P6SM SCT090
     FM261700 16009KT P6SM VCSH SCT070 BKN110=

USA.gov is the U.S. government's official web portal to all federal, state and local government web resources and services.